Amber Beverly — VRHK5 — position and weather

sailwx.info

Track history (hours):
 
Tides and Currents Weather Stations Pressure Air Temp Water Temp Dewpoint Dewpoint Depression Visibility Wind Speed Wind Dir Waves Ship Positions

Amber Beverly

Last reported at 2017-Mar-06 15:10 UTC. Time now 2017-Mar-29 10:55 UTC.
Position N 31°24' E 032°19'.
Warning: this ship's position is 22 days out of date.

Length 190 m; draft 12.5 m.

Type: Cargo ship. MMSI: 477317100.

Date/timePositionNaut miles runAvg speedWind from/ knotsBaromVisibWave heightAir tempDewpointWater temp
2017-Mar-06 15:10N 31°24' E 032°19'0 0.0
2017-Mar-06 14:31N 31°24' E 032°19'479 9.7
2017-Mar-04 13:10N 37°23' E 025°55'14313.1
2017-Mar-04 02:15N 39°46' E 025°46'912.6
2017-Mar-04 01:33N 39°54' E 025°48'1613.3
2017-Mar-04 00:20N 40°01' E 026°07'140 5.4
2017-Mar-02 22:15N 40°58' E 028°56'2 3.3
2017-Mar-02 21:32N 40°59' E 028°59'  
2017-Feb-28 09:24N 46°01' E 031°05'1512.0
2017-Feb-28 08:10N 46°14' E 030°55'812.0
2017-Feb-28 07:29N 46°18' E 030°45'3 3.6
2017-Feb-28 06:33N 46°19' E 030°40'0 0.0
2017-Feb-28 05:34N 46°19' E 030°40'0 0.0
2017-Feb-28 04:33N 46°19' E 030°40'0 0.0
2017-Feb-28 03:34N 46°19' E 030°40'0 0.0
2017-Feb-28 02:34N 46°19' E 030°40'0 0.0
2017-Feb-28 01:33N 46°19' E 030°40'0 0.0
2017-Feb-28 00:27N 46°19' E 030°40'0 0.0
2017-Feb-27 23:33N 46°19' E 030°40'0 0.0
2017-Feb-27 22:23N 46°19' E 030°40'0 0.0
2017-Feb-27 20:24N 46°19' E 030°40'0 0.0
2017-Feb-27 19:28N 46°19' E 030°40'0 0.0
2017-Feb-27 18:29N 46°19' E 030°40'0 0.0
2017-Feb-27 17:29N 46°19' E 030°40'0 0.0
2017-Feb-27 16:30N 46°19' E 030°40'0 0.0
2017-Feb-27 15:30N 46°19' E 030°40'0 0.0
2017-Feb-27 14:29N 46°19' E 030°40'0 0.0
2017-Feb-27 13:29N 46°19' E 030°40'0 0.0
2017-Feb-27 12:29N 46°19' E 030°40'0 0.0
2017-Feb-27 11:30N 46°19' E 030°40'0 0.0
2017-Feb-27 10:29N 46°19' E 030°40'0 0.0
2017-Feb-27 09:27N 46°19' E 030°40'0 0.0
2017-Feb-27 08:29N 46°19' E 030°40'0 0.0
2017-Feb-27 07:29N 46°19' E 030°40'0 0.0
2017-Feb-27 06:29N 46°19' E 030°40'0 0.0
2017-Feb-27 05:30N 46°19' E 030°40'0 0.0
2017-Feb-27 04:29N 46°19' E 030°40'0 0.0
2017-Feb-27 03:29N 46°19' E 030°40'0 0.0
2017-Feb-27 02:29N 46°19' E 030°40'0 0.0
2017-Feb-27 01:29N 46°19' E 030°40'0 0.0
2017-Feb-27 00:29N 46°19' E 030°40'0 0.0
2017-Feb-26 23:29N 46°19' E 030°40'0 0.0
2017-Feb-26 22:29N 46°19' E 030°40'0 0.0
2017-Feb-26 21:29N 46°19' E 030°40'0 0.0
2017-Feb-26 20:29N 46°19' E 030°40'0 0.0
2017-Feb-26 19:29N 46°19' E 030°40'0 0.0
2017-Feb-26 18:27N 46°19' E 030°40'0 0.0
2017-Feb-26 17:29N 46°19' E 030°40'0 0.0
2017-Feb-26 16:28N 46°19' E 030°40'0 0.0
2017-Feb-26 15:29N 46°19' E 030°40'0 0.0
2017-Feb-26 14:29N 46°19' E 030°40'0 0.0
2017-Feb-26 13:29N 46°19' E 030°40'0 0.0
2017-Feb-26 12:29N 46°19' E 030°40'0 0.0
2017-Feb-26 11:24N 46°19' E 030°40'0 0.0
2017-Feb-26 10:29N 46°19' E 030°40'0 0.0
2017-Feb-26 09:29N 46°19' E 030°40'0 0.0
2017-Feb-26 08:29N 46°19' E 030°40'0 0.0
2017-Feb-26 07:29N 46°19' E 030°40'0 0.0
2017-Feb-26 06:30N 46°19' E 030°40'0 0.0
2017-Feb-26 05:29N 46°19' E 030°40'0 0.0
2017-Feb-26 04:27N 46°19' E 030°40'0 0.0
2017-Feb-26 03:29N 46°19' E 030°40'0 0.0
2017-Feb-26 02:29N 46°19' E 030°40'0 0.0
2017-Feb-26 01:29N 46°19' E 030°40'0 0.0
2017-Feb-26 00:27N 46°19' E 030°40'0 0.0
2017-Feb-25 23:29N 46°19' E 030°40'0 0.0
2017-Feb-25 22:29N 46°19' E 030°40'0 0.0
2017-Feb-25 21:29N 46°19' E 030°40'0 0.0
2017-Feb-25 20:29N 46°19' E 030°40'0 0.0
2017-Feb-25 19:30N 46°19' E 030°40'0 0.0
2017-Feb-25 18:29N 46°19' E 030°40'0 0.0
2017-Feb-25 17:29N 46°19' E 030°40'0 0.0
2017-Feb-25 16:29N 46°19' E 030°40'0 0.0
2017-Feb-25 15:29N 46°19' E 030°40'0 0.0
2017-Feb-25 14:28N 46°19' E 030°40'0 0.0
2017-Feb-25 13:29N 46°19' E 030°40'0 0.0
2017-Feb-25 12:29N 46°19' E 030°40'0 0.0
2017-Feb-25 11:25N 46°19' E 030°40'0 0.0
2017-Feb-25 09:14N 46°19' E 030°40'0 0.0
2017-Feb-25 08:19N 46°19' E 030°40'0 0.0
2017-Feb-25 07:28N 46°19' E 030°40'0 0.0
2017-Feb-25 06:29N 46°19' E 030°40'0 0.0
2017-Feb-25 05:23N 46°19' E 030°40'0 0.0
2017-Feb-25 04:28N 46°19' E 030°40'0 0.0
2017-Feb-25 03:23N 46°19' E 030°40'0 0.0
2017-Feb-25 02:28N 46°19' E 030°40'0 0.0
2017-Feb-25 01:30N 46°19' E 030°40'0 0.0
2017-Feb-25 00:30N 46°19' E 030°40'0 0.0
2017-Feb-24 22:29N 46°19' E 030°40'0 0.0
2017-Feb-24 21:34N 46°19' E 030°40'0 0.0
2017-Feb-24 20:29N 46°19' E 030°40'0 0.0
2017-Feb-24 19:28N 46°19' E 030°40'0 0.0
2017-Feb-24 18:29N 46°19' E 030°40'0 0.0
2017-Feb-24 17:29N 46°19' E 030°40'0 0.0
2017-Feb-24 16:15N 46°19' E 030°40'0 0.0
2017-Feb-24 15:28N 46°19' E 030°40'  
Track history (hours):
 
Tides and Currents Weather Stations Pressure Air Temp Water Temp Dewpoint Dewpoint Depression Visibility Wind Speed Wind Dir Waves Ship Positions

Amber Beverly

Last reported at 2017-Mar-06 15:10 UTC. Time now 2017-Mar-29 10:55 UTC.
Position N 31°24' E 032°19'.
Warning: this ship's position is 22 days out of date.

Length 190 m; draft 12.5 m.

Type: Cargo ship. MMSI: 477317100.

Date/timePositionNaut miles runAvg speedWind from/ knotsBaromVisibWave heightAir tempDewpointWater temp
2017-Mar-06 15:10N 31°24' E 032°19'0 0.0
2017-Mar-06 14:31N 31°24' E 032°19'479 9.7
2017-Mar-04 13:10N 37°23' E 025°55'14313.1
2017-Mar-04 02:15N 39°46' E 025°46'912.6
2017-Mar-04 01:33N 39°54' E 025°48'1613.3
2017-Mar-04 00:20N 40°01' E 026°07'140 5.4
2017-Mar-02 22:15N 40°58' E 028°56'2 3.3
2017-Mar-02 21:32N 40°59' E 028°59'  
2017-Feb-28 09:24N 46°01' E 031°05'1512.0
2017-Feb-28 08:10N 46°14' E 030°55'812.0
2017-Feb-28 07:29N 46°18' E 030°45'3 3.6
2017-Feb-28 06:33N 46°19' E 030°40'0 0.0
2017-Feb-28 05:34N 46°19' E 030°40'0 0.0
2017-Feb-28 04:33N 46°19' E 030°40'0 0.0
2017-Feb-28 03:34N 46°19' E 030°40'0 0.0
2017-Feb-28 02:34N 46°19' E 030°40'0 0.0
2017-Feb-28 01:33N 46°19' E 030°40'0 0.0
2017-Feb-28 00:27N 46°19' E 030°40'0 0.0
2017-Feb-27 23:33N 46°19' E 030°40'0 0.0
2017-Feb-27 22:23N 46°19' E 030°40'0 0.0
2017-Feb-27 20:24N 46°19' E 030°40'0 0.0
2017-Feb-27 19:28N 46°19' E 030°40'0 0.0
2017-Feb-27 18:29N 46°19' E 030°40'0 0.0
2017-Feb-27 17:29N 46°19' E 030°40'0 0.0
2017-Feb-27 16:30N 46°19' E 030°40'0 0.0
2017-Feb-27 15:30N 46°19' E 030°40'0 0.0
2017-Feb-27 14:29N 46°19' E 030°40'0 0.0
2017-Feb-27 13:29N 46°19' E 030°40'0 0.0
2017-Feb-27 12:29N 46°19' E 030°40'0 0.0
2017-Feb-27 11:30N 46°19' E 030°40'0 0.0
2017-Feb-27 10:29N 46°19' E 030°40'0 0.0
2017-Feb-27 09:27N 46°19' E 030°40'0 0.0
2017-Feb-27 08:29N 46°19' E 030°40'0 0.0
2017-Feb-27 07:29N 46°19' E 030°40'0 0.0
2017-Feb-27 06:29N 46°19' E 030°40'0 0.0
2017-Feb-27 05:30N 46°19' E 030°40'0 0.0
2017-Feb-27 04:29N 46°19' E 030°40'0 0.0
2017-Feb-27 03:29N 46°19' E 030°40'0 0.0
2017-Feb-27 02:29N 46°19' E 030°40'0 0.0
2017-Feb-27 01:29N 46°19' E 030°40'0 0.0
2017-Feb-27 00:29N 46°19' E 030°40'0 0.0
2017-Feb-26 23:29N 46°19' E 030°40'0 0.0
2017-Feb-26 22:29N 46°19' E 030°40'0 0.0
2017-Feb-26 21:29N 46°19' E 030°40'0 0.0
2017-Feb-26 20:29N 46°19' E 030°40'0 0.0
2017-Feb-26 19:29N 46°19' E 030°40'0 0.0
2017-Feb-26 18:27N 46°19' E 030°40'0 0.0
2017-Feb-26 17:29N 46°19' E 030°40'0 0.0
2017-Feb-26 16:28N 46°19' E 030°40'0 0.0
2017-Feb-26 15:29N 46°19' E 030°40'0 0.0
2017-Feb-26 14:29N 46°19' E 030°40'0 0.0
2017-Feb-26 13:29N 46°19' E 030°40'0 0.0
2017-Feb-26 12:29N 46°19' E 030°40'0 0.0
2017-Feb-26 11:24N 46°19' E 030°40'0 0.0
2017-Feb-26 10:29N 46°19' E 030°40'0 0.0
2017-Feb-26 09:29N 46°19' E 030°40'0 0.0
2017-Feb-26 08:29N 46°19' E 030°40'0 0.0
2017-Feb-26 07:29N 46°19' E 030°40'0 0.0
2017-Feb-26 06:30N 46°19' E 030°40'0 0.0
2017-Feb-26 05:29N 46°19' E 030°40'0 0.0
2017-Feb-26 04:27N 46°19' E 030°40'0 0.0
2017-Feb-26 03:29N 46°19' E 030°40'0 0.0
2017-Feb-26 02:29N 46°19' E 030°40'0 0.0
2017-Feb-26 01:29N 46°19' E 030°40'0 0.0
2017-Feb-26 00:27N 46°19' E 030°40'0 0.0
2017-Feb-25 23:29N 46°19' E 030°40'0 0.0
2017-Feb-25 22:29N 46°19' E 030°40'0 0.0
2017-Feb-25 21:29N 46°19' E 030°40'0 0.0
2017-Feb-25 20:29N 46°19' E 030°40'0 0.0
2017-Feb-25 19:30N 46°19' E 030°40'0 0.0
2017-Feb-25 18:29N 46°19' E 030°40'0 0.0
2017-Feb-25 17:29N 46°19' E 030°40'0 0.0
2017-Feb-25 16:29N 46°19' E 030°40'0 0.0
2017-Feb-25 15:29N 46°19' E 030°40'0 0.0
2017-Feb-25 14:28N 46°19' E 030°40'0 0.0
2017-Feb-25 13:29N 46°19' E 030°40'0 0.0
2017-Feb-25 12:29N 46°19' E 030°40'0 0.0
2017-Feb-25 11:25N 46°19' E 030°40'0 0.0
2017-Feb-25 09:14N 46°19' E 030°40'0 0.0
2017-Feb-25 08:19N 46°19' E 030°40'0 0.0
2017-Feb-25 07:28N 46°19' E 030°40'0 0.0
2017-Feb-25 06:29N 46°19' E 030°40'0 0.0
2017-Feb-25 05:23N 46°19' E 030°40'0 0.0
2017-Feb-25 04:28N 46°19' E 030°40'0 0.0
2017-Feb-25 03:23N 46°19' E 030°40'0 0.0
2017-Feb-25 02:28N 46°19' E 030°40'0 0.0
2017-Feb-25 01:30N 46°19' E 030°40'0 0.0
2017-Feb-25 00:30N 46°19' E 030°40'0 0.0
2017-Feb-24 22:29N 46°19' E 030°40'0 0.0
2017-Feb-24 21:34N 46°19' E 030°40'0 0.0
2017-Feb-24 20:29N 46°19' E 030°40'0 0.0
2017-Feb-24 19:28N 46°19' E 030°40'0 0.0
2017-Feb-24 18:29N 46°19' E 030°40'0 0.0
2017-Feb-24 17:29N 46°19' E 030°40'0 0.0
2017-Feb-24 16:15N 46°19' E 030°40'0 0.0
2017-Feb-24 15:28N 46°19' E 030°40'  

Dump ship's entire track history